الصفحة الرئيسية
METAR-TAF:

METAR-TAF

مطار :

Majuro, جزر مارشال

دائرة عرض: 07-04N, خط طول: 171-17E, ارتفاع: 2 متر

METAR: مفقودة

زمن: 17:22 (05:22 UTC)

توقعات

تاريخ ووقت الإصدار 17ساعات و 44 دقيقة قبل الساعة 11:38UTC
التوقعات صالحة من20 الساعة 12 UTC إلى 21 الساعة 12 UTC
ريح 10 عقدة من الشرق/الجنوب الشرقي
الرؤية: 10 كم
غيوم قليلة على ارتفاع 1500 قدم
غيوم متفرقة على ارتفاع 5000 قدم

TAF: PKMJ 201138Z 2012/2112 12010KT P6SM FEW015 SCT050

أرصاد الطقس والتوقعات من أكثر من 4000 مطار (تقارير الطقس للمطار METAR والتنبؤ بالطقس بالمطارTAF).

المحطات المتاحة هي النقط الصفراء والحمراء على الخريطة.

حرك المؤشر فوق النقطة لمعرفة اسم المحطة.

ثم انقر لمعرفة أرصاد وتوقعات الطقس.

لتغيير الخارطة: اضغط على الأزرار الخضراء مع رمز الصليب الأسود للتكبير. على الزر الأخضر مع شرطة للتصغير، أو على الأسهم الخضراء للخرائط المجاورة.


METAR-TAF: